< < Back
Terminal Aerodrome Forecast


Current Version              Previous Versions:   1  2  3  4  5  6  7  8  9  

Terminal Aerodrome Forecast

361
FTUS42 KCAE 262300
TAFCAE
TAF
KCAE 262340Z 2700/2724 35005KT P6SM SCT025 OVC035
      TEMPO 2703/2705 SCT015 OVC025
     FM270500 VRB04KT P6SM BKN015 OVC020
     FM271500 01005KT P6SM BKN025=

Latest METAR

794
SAUS80 KWBC 270000
MTRCAE
METAR KCAE 262356Z 03003KT 10SM OVC032 07/02 A3005 RMK AO2 SLP174
T00670017 10067 20056 53025


USA.gov is the U.S. government's official web portal to all federal, state and local government web resources and services.